Time;durP1;ratioP1;P1;durP2;ratioP2;P2;SDS_P1;SDS_P2;PMS_P1;PMS_P2;Temp;Humidity;BMP_temperature;BMP_pressure;BME280_temperature;BME280_humidity;BME280_pressure;Samples;Min_cycle;Max_cycle;Signal;HPM_P1;HPM_P2
2022/03/04 00:01:15;;;;;;;16.63;8.50;;;;;;;1.74;59.32;101878.16;4982226;28;20537;-93
2022/03/04 00:03:41;;;;;;;17.83;9.37;;;;;;;1.70;59.35;101880.59;4970326;28;20024;-92
2022/03/04 00:06:06;;;;;;;16.97;9.13;;;;;;;1.69;59.56;101881.44;4961325;28;20202;-92
2022/03/04 00:08:31;;;;;;;17.83;9.07;;;;;;;1.66;59.26;101883.06;4964732;28;20033;-91
2022/03/04 00:10:57;;;;;;;18.97;9.20;;;;;;;1.66;59.25;101885.66;4983492;28;20433;-91
2022/03/04 00:13:22;;;;;;;15.60;8.37;;;;;;;1.64;59.57;101892.44;4965529;28;20019;-93
2022/03/04 00:15:47;;;;;;;16.37;9.13;;;;;;;1.61;59.68;101897.47;4965324;28;20068;-92
2022/03/04 00:18:13;;;;;;;15.97;8.70;;;;;;;1.56;59.71;101888.75;4962535;28;20494;-92
2022/03/04 00:20:38;;;;;;;16.33;8.80;;;;;;;1.56;59.67;101891.31;4962165;28;20031;-92
2022/03/04 00:23:03;;;;;;;18.17;9.33;;;;;;;1.54;59.92;101894.69;4963862;28;20117;-92
2022/03/04 00:25:29;;;;;;;18.10;8.97;;;;;;;1.51;59.60;101890.34;4977740;28;20092;-93
2022/03/04 00:27:54;;;;;;;18.50;8.97;;;;;;;1.49;59.65;101899.69;4965347;28;20034;-92
2022/03/04 00:30:19;;;;;;;16.97;9.17;;;;;;;1.47;60.79;101902.19;4983322;28;20154;-93
2022/03/04 00:32:45;;;;;;;17.20;8.93;;;;;;;1.46;59.88;101904.72;4982832;28;20031;-92
2022/03/04 00:35:11;;;;;;;16.67;8.63;;;;;;;1.46;59.89;101907.28;4966070;28;20113;-94
2022/03/04 00:37:36;;;;;;;18.00;9.57;;;;;;;1.46;60.29;101907.28;4987296;28;20033;-92
2022/03/04 00:40:04;;;;;;;15.80;9.00;;;;;;;1.45;59.89;101920.94;4985662;28;20030;-93
2022/03/04 00:42:30;;;;;;;16.30;8.83;;;;;;;1.44;60.09;101919.19;4964136;28;20062;-93
2022/03/04 00:44:55;;;;;;;18.43;9.37;;;;;;;1.41;60.36;101914.84;4966566;28;20434;-93
2022/03/04 00:47:20;;;;;;;17.60;9.03;;;;;;;1.40;60.82;101912.22;4968420;28;20031;-93
2022/03/04 00:49:45;;;;;;;16.00;8.53;;;;;;;1.38;60.57;101909.63;4971287;28;20051;-92
2022/03/04 00:52:11;;;;;;;17.00;8.70;;;;;;;1.36;60.73;101901.00;4974955;28;20113;-93
2022/03/04 00:54:36;;;;;;;17.40;9.67;;;;;;;1.35;60.55;101901.84;4974773;28;20038;-95
2022/03/04 00:57:02;;;;;;;16.03;8.67;;;;;;;1.32;60.31;101900.06;4976214;28;20541;-93
2022/03/04 00:59:27;;;;;;;17.83;9.60;;;;;;;1.31;60.46;101903.44;4975627;28;20126;-94
2022/03/04 01:01:52;;;;;;;18.60;8.97;;;;;;;1.28;60.75;101903.34;4974856;28;20529;-94
2022/03/04 01:04:18;;;;;;;18.17;9.17;;;;;;;1.23;60.46;101899.78;4974697;28;20117;-92
2022/03/04 01:06:43;;;;;;;18.00;9.03;;;;;;;1.21;60.59;101904.88;4976298;28;20026;-92
2022/03/04 01:09:08;;;;;;;18.17;9.27;;;;;;;1.20;60.57;101912.50;4975223;28;20022;-93
2022/03/04 01:11:34;;;;;;;19.87;9.37;;;;;;;1.17;60.89;101907.28;4975189;28;20493;-92
2022/03/04 01:13:59;;;;;;;17.50;9.27;;;;;;;1.15;61.22;101914.06;4975352;28;20096;-91
2022/03/04 01:16:25;;;;;;;18.13;9.27;;;;;;;1.12;60.79;101911.41;4974984;28;20106;-92
2022/03/04 01:18:50;;;;;;;17.47;9.20;;;;;;;1.10;60.62;101902.78;4975115;28;20497;-93
2022/03/04 01:21:16;;;;;;;18.90;9.93;;;;;;;1.09;60.91;101911.31;4975054;28;20027;-92
2022/03/04 01:23:41;;;;;;;17.07;9.03;;;;;;;1.06;61.20;101907.81;4974861;28;20045;-91
2022/03/04 01:26:07;;;;;;;18.83;9.50;;;;;;;1.05;61.38;101906.06;4975528;28;20038;-92
2022/03/04 01:28:32;;;;;;;17.97;9.27;;;;;;;1.04;60.90;101903.47;4974785;28;20035;-92
2022/03/04 01:30:57;;;;;;;19.77;9.53;;;;;;;1.02;61.27;101903.44;4974859;28;20034;-93
2022/03/04 01:33:23;;;;;;;19.60;9.60;;;;;;;1.00;60.77;101901.63;4975166;28;20557;-92
2022/03/04 01:35:48;;;;;;;20.07;10.00;;;;;;;0.96;61.59;101898.13;4975732;28;20045;-93
2022/03/04 01:38:13;;;;;;;17.47;9.13;;;;;;;0.96;61.07;101904.91;4974770;28;20035;-93
2022/03/04 01:40:39;;;;;;;18.67;9.83;;;;;;;0.94;61.61;101897.19;4976160;28;20042;-91
2022/03/04 01:43:05;;;;;;;18.83;10.00;;;;;;;0.92;61.34;101896.28;4974864;28;20450;-93
2022/03/04 01:45:30;;;;;;;17.27;9.27;;;;;;;0.89;61.73;101893.63;4975004;28;20038;-91
2022/03/04 01:47:56;;;;;;;16.83;9.10;;;;;;;0.88;61.50;101897.00;4989677;28;20042;-91
2022/03/04 01:50:24;;;;;;;16.57;8.77;;;;;;;0.86;61.82;101903.75;4976963;28;20469;-92
2022/03/04 01:52:49;;;;;;;16.23;8.90;;;;;;;0.80;61.72;101901.88;4975823;28;20060;-91
2022/03/04 01:55:15;;;;;;;17.93;9.73;;;;;;;0.78;61.75;101905.22;4976519;28;20049;-92
2022/03/04 01:57:40;;;;;;;18.97;9.17;;;;;;;0.75;62.10;101906.88;4975989;28;20034;-93
2022/03/04 02:00:09;;;;;;;16.67;8.93;;;;;;;0.73;62.46;101908.50;4977782;28;20035;-92
2022/03/04 02:02:35;;;;;;;17.43;9.13;;;;;;;0.71;62.40;101909.28;4976718;28;20030;-92
2022/03/04 02:05:02;;;;;;;19.20;9.67;;;;;;;0.68;62.67;101904.94;4976169;28;20089;-92
2022/03/04 02:07:27;;;;;;;21.10;9.73;;;;;;;0.66;62.03;101905.69;4976826;28;20088;-91
2022/03/04 02:09:53;;;;;;;18.50;9.37;;;;;;;0.64;62.14;101903.09;4976269;28;20038;-92
2022/03/04 02:12:18;;;;;;;18.90;9.23;;;;;;;0.65;62.36;101907.41;4976808;28;20498;-91
2022/03/04 02:14:43;;;;;;;18.30;9.53;;;;;;;0.62;62.50;101894.50;4993772;28;20034;-92
2022/03/04 02:17:09;;;;;;;20.27;10.23;;;;;;;0.59;62.31;101902.94;4976424;28;20037;-93
2022/03/04 02:19:34;;;;;;;20.27;9.83;;;;;;;0.57;62.77;101906.25;4976356;28;20113;-92
2022/03/04 02:22:02;;;;;;;18.10;9.77;;;;;;;0.52;62.61;101907.78;4976970;28;20509;-92
2022/03/04 02:24:32;;;;;;;20.60;9.20;;;;;;;0.51;63.30;101906.09;4992128;28;20030;-92
2022/03/04 02:26:59;;;;;;;19.70;9.90;;;;;;;0.48;63.46;101901.72;4976348;28;20018;-91
2022/03/04 02:29:26;;;;;;;20.00;9.27;;;;;;;0.50;63.20;101906.91;4976492;28;20133;-91
2022/03/04 02:31:52;;;;;;;18.03;9.73;;;;;;;0.48;63.12;101905.97;4975819;28;20319;-91
2022/03/04 02:34:18;;;;;;;17.43;9.13;;;;;;;0.47;63.01;101899.13;4993728;28;20054;-92
2022/03/04 02:36:45;;;;;;;17.67;9.60;;;;;;;0.45;63.26;101896.47;4976435;28;20026;-92
2022/03/04 02:39:10;;;;;;;23.37;11.30;;;;;;;0.42;63.15;101894.69;4976094;28;20030;-91
2022/03/04 02:41:36;;;;;;;18.80;9.70;;;;;;;0.41;63.19;101895.53;4976111;28;20033;-92
2022/03/04 02:44:04;;;;;;;21.50;10.50;;;;;;;0.39;63.18;101896.31;4976215;28;20033;-91
2022/03/04 02:46:30;;;;;;;19.60;9.93;;;;;;;0.38;63.22;101897.97;4976460;28;20034;-92
2022/03/04 02:48:56;;;;;;;18.63;10.20;;;;;;;0.35;63.50;101892.75;4975816;28;20172;-91
2022/03/04 02:51:21;;;;;;;22.40;9.83;;;;;;;0.33;63.16;101894.41;4993093;28;20037;-91
2022/03/04 02:53:46;;;;;;;20.43;9.57;;;;;;;0.31;63.49;101893.47;4992957;28;20038;-92
2022/03/04 02:56:12;;;;;;;19.90;10.03;;;;;;;0.28;64.26;101898.50;4975747;28;20034;-91
2022/03/04 02:58:37;;;;;;;19.73;10.17;;;;;;;0.26;63.48;101893.31;4974256;28;20022;-92
2022/03/04 03:01:03;;;;;;;18.77;9.93;;;;;;;0.23;63.42;101894.91;4993070;28;20515;-91
2022/03/04 03:03:28;;;;;;;22.30;9.47;;;;;;;0.22;63.43;101893.16;4975424;28;20029;-92
2022/03/04 03:05:53;;;;;;;20.60;10.27;;;;;;;0.19;63.82;101893.03;4975728;28;20057;-91
2022/03/04 03:08:19;;;;;;;20.93;10.03;;;;;;;0.14;63.78;101891.22;4975796;28;20022;-93
2022/03/04 03:10:44;;;;;;;17.63;9.33;;;;;;;0.10;64.21;101889.38;4975409;28;20018;-91
2022/03/04 03:13:09;;;;;;;19.63;9.73;;;;;;;0.08;64.49;101890.16;4975749;28;20436;-91
2022/03/04 03:15:35;;;;;;;19.60;10.70;;;;;;;0.07;63.80;101884.16;4992548;28;20473;-92
2022/03/04 03:18:00;;;;;;;20.27;10.13;;;;;;;0.05;64.09;101890.88;4975625;28;20026;-92
2022/03/04 03:20:26;;;;;;;19.23;10.33;;;;;;;0.05;64.47;101893.44;4992889;28;20022;-91
2022/03/04 03:22:51;;;;;;;21.63;10.37;;;;;;;0.03;64.13;101892.53;4974885;28;20535;-91
2022/03/04 03:25:17;;;;;;;19.20;9.97;;;;;;;0.01;64.33;101894.16;4975196;28;20026;-93
2022/03/04 03:27:42;;;;;;;19.27;9.53;;;;;;;-0.01;64.13;101895.81;4975107;28;20022;-92
2022/03/04 03:30:08;;;;;;;19.27;9.90;;;;;;;-0.04;64.26;101890.59;4975287;28;20109;-92
2022/03/04 03:32:34;;;;;;;23.40;10.47;;;;;;;-0.03;64.77;101892.34;4974923;28;20092;-92
2022/03/04 03:34:59;;;;;;;21.00;10.23;;;;;;;-0.04;64.34;101888.88;4975458;28;20030;-92
2022/03/04 03:37:25;;;;;;;20.47;9.60;;;;;;;-0.06;64.60;101898.19;4975403;28;20022;-91
2022/03/04 03:39:51;;;;;;;20.80;10.43;;;;;;;-0.06;64.19;101897.34;4975029;28;20080;-92
2022/03/04 03:42:16;;;;;;;21.77;11.00;;;;;;;-0.09;63.91;101899.78;4975124;28;20113;-92
2022/03/04 03:44:42;;;;;;;18.80;10.07;;;;;;;-0.11;64.29;101901.41;4991991;28;20041;-92
2022/03/04 03:47:09;;;;;;;19.63;10.50;;;;;;;-0.12;64.86;101907.34;4975143;28;20022;-92
2022/03/04 03:49:35;;;;;;;19.97;10.23;;;;;;;-0.14;64.74;101906.41;4983671;28;20495;-91
2022/03/04 03:52:00;;;;;;;18.97;9.77;;;;;;;-0.18;65.05;101901.22;4961800;28;20040;-91
2022/03/04 03:54:25;;;;;;;20.67;10.07;;;;;;;-0.21;64.33;101905.31;4965207;28;20029;-91
2022/03/04 03:56:51;;;;;;;19.83;10.27;;;;;;;-0.23;64.78;101892.50;4978689;28;20039;-92
2022/03/04 03:59:16;;;;;;;22.47;10.30;;;;;;;-0.25;65.21;101906.91;4968258;28;20035;-92
2022/03/04 04:01:41;;;;;;;21.40;10.20;;;;;;;-0.27;64.62;101903.41;4963600;28;20126;-92
2022/03/04 04:04:17;;;;;;;19.70;10.00;;;;;;;-0.28;64.64;101911.03;4964381;28;20034;-92
2022/03/04 04:06:43;;;;;;;23.77;11.00;;;;;;;-0.31;65.28;101909.22;4978467;28;20027;-92
2022/03/04 04:09:09;;;;;;;20.97;10.30;;;;;;;-0.32;65.56;101912.59;4965132;28;20026;-93
2022/03/04 04:11:36;;;;;;;20.33;10.53;;;;;;;-0.32;65.78;101916.03;4961381;28;20026;-91
2022/03/04 04:14:03;;;;;;;20.37;10.00;;;;;;;-0.34;65.33;101930.44;4978160;28;20027;-90
2022/03/04 04:16:28;;;;;;;20.77;10.50;;;;;;;-0.37;65.56;101929.47;4961150;28;20061;-91
2022/03/04 04:18:54;;;;;;;22.03;10.77;;;;;;;-0.40;65.59;101921.69;4961838;28;20475;-92
2022/03/04 04:21:19;;;;;;;20.57;10.27;;;;;;;-0.42;65.13;101924.16;4967799;28;20061;-92
2022/03/04 04:23:44;;;;;;;19.47;9.50;;;;;;;-0.43;65.28;101931.78;4967629;28;20030;-91
2022/03/04 04:26:10;;;;;;;20.60;9.70;;;;;;;-0.46;65.18;101930.88;4969926;28;20031;-92
2022/03/04 04:28:35;;;;;;;19.47;10.60;;;;;;;-0.48;65.55;101929.06;4987876;28;20394;-94
2022/03/04 04:31:02;;;;;;;24.40;10.70;;;;;;;-0.51;65.67;101926.41;4969190;28;20056;-93
2022/03/04 04:33:27;;;;;;;24.37;11.00;;;;;;;-0.53;66.15;101928.03;4965863;28;20023;-93
2022/03/04 04:35:53;;;;;;;22.17;11.03;;;;;;;-0.52;65.94;101929.78;4968794;28;20474;-92
2022/03/04 04:38:18;;;;;;;20.60;10.30;;;;;;;-0.54;66.38;101923.72;4970589;28;20035;-92
2022/03/04 04:40:43;;;;;;;20.43;10.40;;;;;;;-0.55;66.01;101917.75;4969314;28;20382;-92
2022/03/04 04:43:08;;;;;;;21.27;10.10;;;;;;;-0.55;65.33;101924.53;4968675;28;20114;-92
2022/03/04 04:45:34;;;;;;;21.80;10.67;;;;;;;-0.56;66.72;101927.91;4968663;28;20398;-91
2022/03/04 04:47:59;;;;;;;20.17;10.37;;;;;;;-0.58;66.49;101932.97;4972297;28;20018;-92
2022/03/04 04:50:24;;;;;;;23.20;10.77;;;;;;;-0.58;66.41;101927.84;4994940;28;20113;-93
2022/03/04 04:52:50;;;;;;;21.50;10.47;;;;;;;-0.58;66.75;101920.19;4978625;28;20030;-92
2022/03/04 04:55:15;;;;;;;22.03;10.73;;;;;;;-0.60;66.66;101924.38;4978519;28;20048;-91
2022/03/04 04:57:40;;;;;;;22.77;10.37;;;;;;;-0.61;66.76;101914.97;4994420;28;20045;-91
2022/03/04 05:00:06;;;;;;;21.60;10.57;;;;;;;-0.62;66.98;101920.88;4995643;28;20180;-91
2022/03/04 05:02:32;;;;;;;22.97;11.00;;;;;;;-0.64;66.81;101913.16;4977675;28;20047;-91
2022/03/04 05:04:57;;;;;;;24.03;10.97;;;;;;;-0.64;67.25;101928.50;4994844;28;20129;-91
2022/03/04 05:07:22;;;;;;;21.77;11.07;;;;;;;-0.64;67.25;101927.63;4978513;28;20173;-92
2022/03/04 05:09:48;;;;;;;21.83;11.03;;;;;;;-0.66;67.03;101927.56;4977753;28;20117;-91
2022/03/04 05:12:13;;;;;;;23.60;11.60;;;;;;;-0.63;66.76;101921.69;4977847;28;20026;-92
2022/03/04 05:14:39;;;;;;;21.20;10.63;;;;;;;-0.64;66.81;101927.63;4977767;28;20584;-91
2022/03/04 05:17:05;;;;;;;23.83;11.20;;;;;;;-0.67;67.18;101920.72;4995429;28;20080;-92
2022/03/04 05:19:30;;;;;;;21.63;9.47;;;;;;;-0.63;66.55;101924.25;4977391;28;20539;-92
2022/03/04 05:21:55;;;;;;;23.27;10.93;;;;;;;-0.65;66.88;101925.88;4995287;28;20030;-92
2022/03/04 05:24:21;;;;;;;20.83;11.13;;;;;;;-0.67;66.87;101928.38;4977071;28;20030;-92
2022/03/04 05:26:46;;;;;;;21.53;10.50;;;;;;;-0.68;66.69;101934.31;4977268;28;20026;-91
2022/03/04 05:29:12;;;;;;;23.40;11.70;;;;;;;-0.67;67.48;101930.03;4994523;28;20050;-92
2022/03/04 05:31:39;;;;;;;21.97;11.53;;;;;;;-0.71;66.73;101930.78;4994940;28;20056;-91
2022/03/04 05:34:06;;;;;;;20.93;11.17;;;;;;;-0.70;67.06;101932.50;4975282;28;20030;-91
2022/03/04 05:36:32;;;;;;;23.13;10.77;;;;;;;-0.72;67.43;101934.13;4979920;28;20466;-91
2022/03/04 05:38:58;;;;;;;22.00;10.93;;;;;;;-0.73;67.65;101929.84;4995794;28;20478;-93
2022/03/04 05:41:24;;;;;;;22.17;11.13;;;;;;;-0.75;67.30;101928.91;4994795;28;20532;-91
2022/03/04 05:43:50;;;;;;;22.90;10.73;;;;;;;-0.78;66.84;101940.75;4994530;28;20026;-92
2022/03/04 05:46:15;;;;;;;23.10;11.27;;;;;;;-0.80;67.60;101942.34;4993835;28;20062;-91
2022/03/04 05:48:41;;;;;;;23.90;11.93;;;;;;;-0.81;67.61;101940.63;4976831;28;20042;-91
2022/03/04 05:51:07;;;;;;;23.60;11.50;;;;;;;-0.83;68.10;101947.34;4976526;28;20026;-91
2022/03/04 05:53:33;;;;;;;20.63;10.27;;;;;;;-0.80;67.49;101957.69;4993857;28;20065;-93
2022/03/04 05:56:07;;;;;;;27.40;12.80;;;;;;;-0.83;67.31;101960.13;4976615;28;20105;-93
2022/03/04 05:58:34;;;;;;;23.93;11.00;;;;;;;-0.86;67.96;101957.47;4976508;28;20054;-93
2022/03/04 06:00:59;;;;;;;22.03;10.90;;;;;;;-0.88;67.66;101959.09;4994674;28;20490;-92
2022/03/04 06:03:25;;;;;;;22.10;10.80;;;;;;;-0.92;68.82;101962.31;4977522;28;20026;-92
2022/03/04 06:05:50;;;;;;;22.20;11.30;;;;;;;-0.94;68.63;101969.91;4977894;28;20084;-92
2022/03/04 06:08:16;;;;;;;21.13;11.10;;;;;;;-0.93;68.41;101970.78;4976371;28;20034;-92
2022/03/04 06:10:42;;;;;;;26.10;11.63;;;;;;;-0.95;69.15;101969.88;4977234;28;20470;-92
2022/03/04 06:13:07;;;;;;;23.83;10.93;;;;;;;-0.93;68.87;101970.78;4994500;28;20109;-92
2022/03/04 06:15:33;;;;;;;25.07;12.10;;;;;;;-0.92;68.83;101965.75;4977446;28;20058;-92
2022/03/04 06:17:58;;;;;;;26.67;11.93;;;;;;;-0.92;68.89;101968.28;4994050;28;20493;-91
2022/03/04 06:20:23;;;;;;;24.60;11.73;;;;;;;-0.93;68.20;101960.59;4977465;28;20109;-93
2022/03/04 06:22:49;;;;;;;22.80;10.83;;;;;;;-0.93;68.48;101961.44;4976563;28;20037;-91
2022/03/04 06:25:14;;;;;;;23.00;11.50;;;;;;;-0.91;68.86;101964.06;4978716;28;20037;-92
2022/03/04 06:28:00;;;;;;;23.13;11.23;;;;;;;-0.89;67.60;101976.88;4993973;28;20018;-93
2022/03/04 06:30:28;;;;;;;24.03;11.40;;;;;;;-0.89;68.64;101972.66;4993276;28;20100;-92
2022/03/04 06:33:30;;;;;;;25.53;11.70;;;;;;;-0.90;67.94;101968.38;4993269;28;20081;-94
2022/03/04 06:35:43;;;;;;;23.17;11.27;;;;;;;-0.90;68.99;101972.59;4993543;28;20185;-93
2022/03/04 06:38:09;;;;;;;26.77;11.90;;;;;;;-0.90;69.00;101973.47;4992871;28;20176;-93
2022/03/04 06:40:35;;;;;;;22.23;11.33;;;;;;;-0.90;69.39;101967.47;4976745;28;20034;-94
2022/03/04 06:43:00;;;;;;;27.80;12.40;;;;;;;-0.92;69.44;101975.09;4993562;28;20156;-93
2022/03/04 06:45:25;;;;;;;25.17;11.60;;;;;;;-0.92;69.35;101982.75;4983830;28;20490;-94
2022/03/04 06:47:51;;;;;;;26.90;12.63;;;;;;;-0.93;69.21;101981.00;4975106;28;20042;-93
2022/03/04 06:50:17;;;;;;;30.33;11.60;;;;;;;-0.89;69.18;101988.00;4966438;28;20026;-93
2022/03/04 06:52:43;;;;;;;25.83;12.27;;;;;;;-0.90;69.47;101981.16;4981403;28;20069;-92
2022/03/04 06:55:09;;;;;;;23.50;12.23;;;;;;;-0.88;70.17;101999.97;4965631;28;20026;-92
2022/03/04 06:57:34;;;;;;;25.80;12.20;;;;;;;-0.86;70.18;101995.78;4965584;28;20027;-93
2022/03/04 07:00:00;;;;;;;23.63;11.77;;;;;;;-0.85;70.38;101988.97;4982595;28;20062;-93
2022/03/04 07:02:25;;;;;;;24.23;12.07;;;;;;;-0.81;69.61;101998.53;4960452;28;20130;-94
2022/03/04 07:04:50;;;;;;;29.10;12.63;;;;;;;-0.78;70.12;102009.72;4965468;28;20569;-93
2022/03/04 07:10:29;;;;;;;31.07;13.13;;;;;;;-0.72;69.76;102008.25;5000251;28;20046;-91
2022/03/04 07:12:55;;;;;;;30.23;12.97;;;;;;;-0.66;69.75;102013.56;5002960;28;20050;-95
2022/03/04 07:15:20;;;;;;;27.83;12.80;;;;;;;-0.65;70.26;102008.53;4998684;28;20022;-95
2022/03/04 07:17:46;;;;;;;26.97;12.80;;;;;;;-0.59;69.99;102017.22;4997197;28;20026;-95
2022/03/04 07:20:12;;;;;;;26.70;11.93;;;;;;;-0.56;70.02;102013.13;4997117;28;20045;-94
2022/03/04 07:22:39;;;;;;;25.80;12.20;;;;;;;-0.52;70.02;102015.00;4990705;28;20381;-95
2022/03/04 07:25:10;;;;;;;25.03;12.07;;;;;;;-0.46;69.84;102025.47;4998825;28;20027;-94
2022/03/04 07:27:36;;;;;;;23.48;11.65;;;;;;;-0.42;69.50;102025.59;4997253;28;20037;-95
2022/03/04 07:30:13;;;;;;;23.80;11.90;;;;;;;-0.38;69.36;102023.19;4990774;28;20101;-96
2022/03/04 07:32:41;;;;;;;24.83;11.43;;;;;;;-0.32;69.42;102022.56;4994247;28;20041;-95
2022/03/04 07:35:08;;;;;;;24.77;11.77;;;;;;;-0.26;69.86;102025.34;4990325;28;20030;-95
2022/03/04 07:37:37;;;;;;;32.20;12.93;;;;;;;-0.20;69.41;102033.28;4978306;28;20030;-91
2022/03/04 07:40:08;;;;;;;24.30;11.83;;;;;;;-0.17;69.63;102028.25;5111246;23;20065;-93
2022/03/04 07:46:58;;;;;;;;;;;;;;;;;;;;;
2022/03/04 07:49:24;;;;;;;26.03;12.03;;;;;;;0.01;69.16;102027.19;5047493;23;20042;-92
2022/03/04 07:51:50;;;;;;;26.10;12.37;;;;;;;0.04;68.66;102032.44;5005527;28;20036;-91
2022/03/04 07:54:20;;;;;;;26.83;12.73;;;;;;;0.10;69.36;102030.09;5000083;28;20017;-90
2022/03/04 07:56:47;;;;;;;26.43;13.03;;;;;;;0.13;69.82;102026.78;5006425;28;20030;-91
2022/03/04 07:59:34;;;;;;;27.57;13.37;;;;;;;0.18;68.40;102032.94;5005735;28;20026;-92
2022/03/04 08:02:00;;;;;;;23.57;12.43;;;;;;;0.24;69.84;102035.72;4988841;28;20112;-91
2022/03/04 08:04:37;;;;;;;26.80;12.48;;;;;;;0.28;69.17;102029.88;5003270;28;20036;-94
2022/03/04 08:07:03;;;;;;;28.50;12.57;;;;;;;0.36;69.27;102040.41;4975870;28;20452;-92
2022/03/04 08:09:29;;;;;;;27.20;12.87;;;;;;;0.39;69.13;102037.94;4987166;28;20026;-93
2022/03/04 08:11:54;;;;;;;26.20;12.87;;;;;;;0.43;69.21;102032.13;4985935;28;20433;-94
2022/03/04 08:14:19;;;;;;;27.23;12.60;;;;;;;0.49;69.19;102041.72;4988792;28;20401;-93
2022/03/04 08:16:45;;;;;;;25.60;12.27;;;;;;;0.56;69.22;102038.56;4989455;28;20030;-94
2022/03/04 08:19:10;;;;;;;26.13;12.20;;;;;;;0.62;68.88;102034.44;5008997;28;20029;-95
2022/03/04 08:21:36;;;;;;;23.17;11.83;;;;;;;0.68;68.69;102037.22;4998083;28;20085;-93
2022/03/04 08:24:07;;;;;;;25.90;12.67;;;;;;;0.72;68.52;102034.81;5007520;28;20041;-93
2022/03/04 08:26:41;;;;;;;23.48;11.90;;;;;;;0.80;68.16;102041.91;4999231;28;20030;-94
2022/03/04 08:29:09;;;;;;;27.07;12.87;;;;;;;0.85;68.29;102048.94;5006045;28;20053;-92
2022/03/04 08:31:38;;;;;;;26.43;11.83;;;;;;;0.90;67.97;102049.97;5000737;28;20037;-91
2022/03/04 08:34:11;;;;;;;25.87;12.33;;;;;;;0.96;68.05;102054.41;5008775;28;20032;-94
2022/03/04 08:36:37;;;;;;;25.57;12.27;;;;;;;1.03;67.96;102060.63;4989533;28;20030;-95
2022/03/04 08:39:05;;;;;;;24.47;11.90;;;;;;;1.09;68.16;102065.06;4991272;28;20037;-94
2022/03/04 08:41:32;;;;;;;25.70;12.13;;;;;;;1.16;67.75;102059.34;4990852;28;20021;-93
2022/03/04 08:43:58;;;;;;;26.40;11.80;;;;;;;1.22;66.90;102062.09;4988744;28;20141;-93
2022/03/04 08:46:26;;;;;;;26.63;12.97;;;;;;;1.29;66.90;102061.47;4989756;28;20481;-94
2022/03/04 08:48:52;;;;;;;26.40;12.80;;;;;;;1.35;66.32;102064.25;4985002;28;20077;-93
2022/03/04 08:51:17;;;;;;;26.00;12.53;;;;;;;1.41;66.37;102061.00;4984961;28;20592;-89
2022/03/04 08:53:43;;;;;;;26.80;12.40;;;;;;;1.48;67.67;102069.75;5002767;28;20034;-92
2022/03/04 08:57:06;;;;;;;25.47;12.23;;;;;;;1.56;66.18;102070.00;4991256;28;20121;-94
2022/03/04 08:59:32;;;;;;;25.23;12.23;;;;;;;1.64;65.96;102077.13;4998005;28;20038;-93
2022/03/04 09:01:57;;;;;;;25.17;12.33;;;;;;;1.70;65.78;102075.56;4986783;28;20068;-91
2022/03/04 09:04:24;;;;;;;22.80;11.97;;;;;;;1.78;65.12;102079.22;4988082;28;20060;-94
2022/03/04 09:06:49;;;;;;;25.30;11.97;;;;;;;1.84;64.49;102078.53;5005366;28;20034;-92
2022/03/04 09:09:17;;;;;;;27.40;12.47;;;;;;;1.91;65.29;102081.34;4992284;23;20038;-90
2022/03/04 09:11:43;;;;;;;22.23;11.27;;;;;;;1.99;65.19;102080.72;4969349;28;20122;-91
2022/03/04 09:14:08;;;;;;;22.53;11.80;;;;;;;2.04;63.97;102079.16;4966843;28;20031;-92
2022/03/04 09:16:34;;;;;;;25.10;12.13;;;;;;;2.10;64.66;102074.19;4965465;28;20098;-92
2022/03/04 09:18:59;;;;;;;27.30;13.23;;;;;;;2.18;64.83;102072.72;4967614;28;20042;-93
2022/03/04 09:21:28;;;;;;;26.50;12.83;;;;;;;2.26;64.82;102063.53;4968234;28;20035;-94
2022/03/04 09:23:54;;;;;;;24.03;13.23;;;;;;;2.32;65.28;102062.81;4966311;28;20062;-93
2022/03/04 09:26:19;;;;;;;25.47;12.80;;;;;;;2.40;63.66;102060.47;4970027;28;20058;-93
2022/03/04 09:28:45;;;;;;;28.80;12.27;;;;;;;2.46;62.58;102050.38;4969083;28;20454;-95
2022/03/04 09:31:10;;;;;;;25.70;12.43;;;;;;;2.52;63.19;102053.13;4973361;28;20031;-92
2022/03/04 09:33:36;;;;;;;23.37;11.73;;;;;;;2.56;62.30;102047.22;4965226;28;20089;-93
2022/03/04 09:36:03;;;;;;;23.73;12.50;;;;;;;2.63;62.24;102044.81;4965219;28;20033;-93
2022/03/04 09:38:28;;;;;;;27.67;13.17;;;;;;;2.68;63.02;102045.81;4965733;28;20039;-93
2022/03/04 09:40:53;;;;;;;26.23;13.70;;;;;;;2.76;62.52;102038.31;4967940;28;20034;-93
2022/03/04 09:43:21;;;;;;;25.07;12.83;;;;;;;2.81;62.13;102037.59;4966406;28;20382;-94
2022/03/04 09:45:56;;;;;;;27.67;13.77;;;;;;;2.88;62.40;102039.50;4977488;28;20046;-96
2022/03/04 09:48:33;;;;;;;25.90;12.63;;;;;;;2.98;62.43;102042.31;4957307;28;20471;-95
2022/03/04 09:50:59;;;;;;;28.33;13.20;;;;;;;3.07;61.90;102050.25;4970339;28;20026;-94
2022/03/04 09:53:26;;;;;;;28.13;12.73;;;;;;;3.13;60.97;102049.53;4958785;28;20022;-94
2022/03/04 09:55:52;;;;;;;24.43;13.73;;;;;;;3.22;62.00;102051.47;4954150;28;20026;-93
2022/03/04 09:58:19;;;;;;;22.80;12.00;;;;;;;3.32;61.00;102053.41;4965229;28;20027;-92
2022/03/04 10:00:47;;;;;;;38.43;13.40;;;;;;;3.39;61.94;102042.44;4964919;28;20035;-91
2022/03/04 10:03:40;;;;;;;25.60;12.57;;;;;;;3.46;62.03;102044.31;4965913;28;20029;-93
2022/03/04 10:06:06;;;;;;;24.97;13.40;;;;;;;3.57;61.25;102052.28;4963341;28;20751;-92
2022/03/04 10:08:39;;;;;;;26.10;13.00;;;;;;;3.64;60.40;102053.28;4978359;28;20046;-91
2022/03/04 10:11:05;;;;;;;26.03;13.50;;;;;;;3.68;59.89;102043.91;4992715;28;20667;-91
2022/03/04 10:14:03;;;;;;;23.97;12.90;;;;;;;3.74;60.75;102044.97;5012576;28;20033;-94
2022/03/04 10:16:29;;;;;;;22.77;11.17;;;;;;;3.78;59.33;102041.59;4996696;28;20029;-95
2022/03/04 10:26:37;;;;;;;25.73;13.77;;;;;;;4.01;60.30;102042.94;5471110;23;20058;-95
2022/03/04 10:37:52;;;;;;;23.63;12.68;;;;;;;4.25;59.11;102046.00;5124395;23;20065;-93
2022/03/04 10:40:20;;;;;;;24.77;13.20;;;;;;;4.33;58.90;102040.16;4994566;28;20038;-94
2022/03/04 10:42:59;;;;;;;27.60;13.53;;;;;;;4.38;59.16;102033.34;4981422;28;20035;-92
2022/03/04 10:45:29;;;;;;;25.63;13.03;;;;;;;4.45;58.15;102042.06;4984306;28;20026;-91
2022/03/04 10:48:03;;;;;;;26.00;13.17;;;;;;;4.49;58.92;102041.28;4975603;28;20155;-93
2022/03/04 10:50:34;;;;;;;23.70;12.87;;;;;;;4.55;58.17;102041.41;4979872;28;20533;-94
2022/03/04 10:53:03;;;;;;;26.20;13.80;;;;;;;4.58;57.72;102038.91;4974211;28;20019;-94
2022/03/04 10:56:10;;;;;;;29.30;13.27;;;;;;;4.66;58.03;102039.03;4982363;28;20061;-93
2022/03/04 10:58:38;;;;;;;24.88;12.73;;;;;;;4.71;56.76;102035.69;4977551;28;20050;-94
2022/03/04 11:01:10;;;;;;;25.27;13.40;;;;;;;4.75;57.15;102036.63;4976621;28;20038;-94
2022/03/04 11:03:41;;;;;;;24.58;12.93;;;;;;;4.83;56.28;102039.31;4980157;28;20117;-95
2022/03/04 11:06:27;;;;;;;23.63;13.27;;;;;;;4.88;57.75;102035.13;4985508;28;20035;-96
2022/03/04 11:15:36;;;;;;;25.10;13.00;;;;;;;5.10;56.78;102027.75;4977692;28;20065;-91
2022/03/04 11:18:42;;;;;;;24.45;12.50;;;;;;;5.16;57.15;102028.72;4962923;28;20442;-93
2022/03/04 11:21:11;;;;;;;25.87;13.90;;;;;;;5.21;55.52;102017.63;4933436;28;20086;-91
2022/03/04 11:23:38;;;;;;;23.15;13.45;;;;;;;5.28;55.31;102025.47;4903898;28;20125;-91
2022/03/04 11:26:09;;;;;;;26.77;13.63;;;;;;;5.30;55.57;102025.47;4932453;28;20031;-92
2022/03/04 11:28:43;;;;;;;26.60;14.30;;;;;;;5.37;55.40;102026.44;4951632;28;20038;-92
2022/03/04 11:31:20;;;;;;;25.17;14.27;;;;;;;5.44;54.34;102025.69;4934184;28;20035;-93
2022/03/04 11:33:51;;;;;;;25.95;13.25;;;;;;;5.53;54.78;102027.53;4951979;28;20030;-93
2022/03/04 11:36:25;;;;;;;25.27;13.47;;;;;;;5.61;54.17;102026.81;4934305;29;20035;-93
2022/03/04 11:38:51;;;;;;;25.13;13.40;;;;;;;5.72;54.66;102020.91;4949173;28;20034;-94
2022/03/04 11:41:38;;;;;;;25.23;13.07;;;;;;;5.82;54.78;102017.59;4957333;28;20049;-93
2022/03/04 11:44:30;;;;;;;24.17;13.45;;;;;;;5.92;54.12;102009.13;4955342;28;20035;-93
2022/03/04 11:47:28;;;;;;;23.75;13.18;;;;;;;6.03;55.08;102011.00;4938574;28;20058;-92
2022/03/04 11:52:44;;;;;;;20.52;12.45;;;;;;;6.21;53.71;101998.31;5302158;23;20451;-86